sensor_id;sensor_type;location;lat;lon;timestamp;P1;durP1;ratioP1;P2;durP2;ratioP2
80675;SDS011;70041;46.088;18.268;2024-02-15T00:01:38;21.42;;;8.93;;
80675;SDS011;70041;46.088;18.268;2024-02-15T00:04:04;18.92;;;8.15;;
80675;SDS011;70041;46.088;18.268;2024-02-15T00:06:30;18.83;;;7.93;;
80675;SDS011;70041;46.088;18.268;2024-02-15T00:08:56;18.17;;;7.40;;
80675;SDS011;70041;46.088;18.268;2024-02-15T00:11:21;16.83;;;6.73;;
80675;SDS011;70041;46.088;18.268;2024-02-15T00:13:47;17.20;;;7.27;;
80675;SDS011;70041;46.088;18.268;2024-02-15T00:16:13;16.83;;;6.97;;
80675;SDS011;70041;46.088;18.268;2024-02-15T00:18:39;14.02;;;7.00;;
80675;SDS011;70041;46.088;18.268;2024-02-15T00:21:05;17.02;;;7.70;;
80675;SDS011;70041;46.088;18.268;2024-02-15T00:23:30;19.27;;;8.15;;
80675;SDS011;70041;46.088;18.268;2024-02-15T00:25:57;17.90;;;7.82;;
80675;SDS011;70041;46.088;18.268;2024-02-15T00:28:22;15.35;;;6.95;;
80675;SDS011;70041;46.088;18.268;2024-02-15T00:30:49;13.60;;;6.53;;
80675;SDS011;70041;46.088;18.268;2024-02-15T00:33:14;16.37;;;6.57;;
80675;SDS011;70041;46.088;18.268;2024-02-15T00:35:40;16.97;;;7.20;;
80675;SDS011;70041;46.088;18.268;2024-02-15T00:38:05;14.97;;;6.63;;
80675;SDS011;70041;46.088;18.268;2024-02-15T00:40:32;13.15;;;7.60;;
80675;SDS011;70041;46.088;18.268;2024-02-15T00:42:57;13.73;;;6.60;;
80675;SDS011;70041;46.088;18.268;2024-02-15T00:45:23;14.80;;;6.95;;
80675;SDS011;70041;46.088;18.268;2024-02-15T00:47:49;14.35;;;6.90;;
80675;SDS011;70041;46.088;18.268;2024-02-15T00:50:14;15.30;;;6.67;;
80675;SDS011;70041;46.088;18.268;2024-02-15T00:52:40;15.60;;;6.50;;
80675;SDS011;70041;46.088;18.268;2024-02-15T00:55:05;14.73;;;6.83;;
80675;SDS011;70041;46.088;18.268;2024-02-15T00:57:31;16.30;;;7.22;;
80675;SDS011;70041;46.088;18.268;2024-02-15T00:59:56;14.93;;;6.93;;
80675;SDS011;70041;46.088;18.268;2024-02-15T01:02:22;16.60;;;7.80;;
80675;SDS011;70041;46.088;18.268;2024-02-15T01:04:48;16.02;;;7.15;;
80675;SDS011;70041;46.088;18.268;2024-02-15T01:07:15;14.55;;;6.55;;
80675;SDS011;70041;46.088;18.268;2024-02-15T01:09:40;15.77;;;6.80;;
80675;SDS011;70041;46.088;18.268;2024-02-15T01:12:06;16.33;;;7.97;;
80675;SDS011;70041;46.088;18.268;2024-02-15T01:14:31;16.67;;;8.63;;
80675;SDS011;70041;46.088;18.268;2024-02-15T01:16:57;18.50;;;8.75;;
80675;SDS011;70041;46.088;18.268;2024-02-15T01:19:22;23.20;;;9.47;;
80675;SDS011;70041;46.088;18.268;2024-02-15T01:21:48;22.83;;;10.07;;
80675;SDS011;70041;46.088;18.268;2024-02-15T01:24:13;27.92;;;12.57;;
80675;SDS011;70041;46.088;18.268;2024-02-15T01:26:38;34.30;;;15.93;;
80675;SDS011;70041;46.088;18.268;2024-02-15T01:29:04;31.40;;;15.40;;
80675;SDS011;70041;46.088;18.268;2024-02-15T01:31:29;32.20;;;15.20;;
80675;SDS011;70041;46.088;18.268;2024-02-15T01:33:55;24.63;;;13.17;;
80675;SDS011;70041;46.088;18.268;2024-02-15T01:36:20;24.27;;;11.48;;
80675;SDS011;70041;46.088;18.268;2024-02-15T01:38:46;23.27;;;10.33;;
80675;SDS011;70041;46.088;18.268;2024-02-15T01:41:11;22.70;;;11.10;;
80675;SDS011;70041;46.088;18.268;2024-02-15T01:43:37;21.83;;;10.57;;
80675;SDS011;70041;46.088;18.268;2024-02-15T01:46:06;20.15;;;10.93;;
80675;SDS011;70041;46.088;18.268;2024-02-15T01:48:33;19.63;;;9.43;;
80675;SDS011;70041;46.088;18.268;2024-02-15T01:51:00;19.58;;;9.63;;
80675;SDS011;70041;46.088;18.268;2024-02-15T01:53:26;25.10;;;11.05;;
80675;SDS011;70041;46.088;18.268;2024-02-15T01:55:52;19.60;;;9.40;;
80675;SDS011;70041;46.088;18.268;2024-02-15T01:58:20;20.38;;;10.23;;
80675;SDS011;70041;46.088;18.268;2024-02-15T02:00:45;22.00;;;9.68;;
80675;SDS011;70041;46.088;18.268;2024-02-15T02:03:13;20.05;;;10.32;;
80675;SDS011;70041;46.088;18.268;2024-02-15T02:05:40;20.73;;;9.52;;
80675;SDS011;70041;46.088;18.268;2024-02-15T02:08:06;33.50;;;14.00;;
80675;SDS011;70041;46.088;18.268;2024-02-15T02:10:35;53.42;;;22.33;;
80675;SDS011;70041;46.088;18.268;2024-02-15T02:13:01;48.85;;;19.55;;
80675;SDS011;70041;46.088;18.268;2024-02-15T02:15:27;82.40;;;32.20;;
80675;SDS011;70041;46.088;18.268;2024-02-15T02:17:54;64.65;;;28.52;;
80675;SDS011;70041;46.088;18.268;2024-02-15T02:20:19;74.27;;;36.13;;
80675;SDS011;70041;46.088;18.268;2024-02-15T02:22:46;62.42;;;30.02;;
80675;SDS011;70041;46.088;18.268;2024-02-15T02:25:13;39.73;;;17.93;;
80675;SDS011;70041;46.088;18.268;2024-02-15T02:27:39;23.63;;;11.65;;
80675;SDS011;70041;46.088;18.268;2024-02-15T02:30:14;21.30;;;11.50;;
80675;SDS011;70041;46.088;18.268;2024-02-15T02:32:42;27.30;;;12.32;;
80675;SDS011;70041;46.088;18.268;2024-02-15T02:35:08;23.60;;;11.93;;
80675;SDS011;70041;46.088;18.268;2024-02-15T02:37:36;21.98;;;11.45;;
80675;SDS011;70041;46.088;18.268;2024-02-15T02:40:03;29.07;;;12.27;;
80675;SDS011;70041;46.088;18.268;2024-02-15T02:42:29;24.83;;;11.45;;
80675;SDS011;70041;46.088;18.268;2024-02-15T02:44:55;21.67;;;9.73;;
80675;SDS011;70041;46.088;18.268;2024-02-15T02:47:20;21.07;;;10.40;;
80675;SDS011;70041;46.088;18.268;2024-02-15T02:49:46;23.95;;;10.80;;
80675;SDS011;70041;46.088;18.268;2024-02-15T02:52:12;18.67;;;9.80;;
80675;SDS011;70041;46.088;18.268;2024-02-15T02:54:37;25.02;;;11.15;;
80675;SDS011;70041;46.088;18.268;2024-02-15T02:57:02;23.00;;;10.57;;
80675;SDS011;70041;46.088;18.268;2024-02-15T02:59:32;55.53;;;24.40;;
80675;SDS011;70041;46.088;18.268;2024-02-15T03:01:59;49.30;;;22.33;;
80675;SDS011;70041;46.088;18.268;2024-02-15T03:04:24;176.57;;;58.13;;
80675;SDS011;70041;46.088;18.268;2024-02-15T03:06:50;83.38;;;31.75;;
80675;SDS011;70041;46.088;18.268;2024-02-15T03:09:16;42.80;;;19.02;;
80675;SDS011;70041;46.088;18.268;2024-02-15T03:11:42;42.38;;;20.08;;
80675;SDS011;70041;46.088;18.268;2024-02-15T03:14:07;40.00;;;20.07;;
80675;SDS011;70041;46.088;18.268;2024-02-15T03:16:33;33.50;;;17.02;;
80675;SDS011;70041;46.088;18.268;2024-02-15T03:19:01;27.08;;;13.90;;
80675;SDS011;70041;46.088;18.268;2024-02-15T03:21:27;32.83;;;15.73;;
80675;SDS011;70041;46.088;18.268;2024-02-15T03:23:53;76.10;;;35.58;;
80675;SDS011;70041;46.088;18.268;2024-02-15T03:26:23;36.40;;;17.23;;
80675;SDS011;70041;46.088;18.268;2024-02-15T03:28:56;32.22;;;13.25;;
80675;SDS011;70041;46.088;18.268;2024-02-15T03:31:21;44.03;;;20.30;;
80675;SDS011;70041;46.088;18.268;2024-02-15T03:33:46;36.17;;;16.87;;
80675;SDS011;70041;46.088;18.268;2024-02-15T03:36:15;23.20;;;12.13;;
80675;SDS011;70041;46.088;18.268;2024-02-15T03:38:43;23.70;;;11.30;;
80675;SDS011;70041;46.088;18.268;2024-02-15T03:41:10;24.83;;;11.30;;
80675;SDS011;70041;46.088;18.268;2024-02-15T03:43:35;19.50;;;10.15;;
80675;SDS011;70041;46.088;18.268;2024-02-15T03:46:00;18.80;;;8.93;;
80675;SDS011;70041;46.088;18.268;2024-02-15T03:48:26;16.10;;;8.20;;
80675;SDS011;70041;46.088;18.268;2024-02-15T03:50:51;18.77;;;9.13;;
80675;SDS011;70041;46.088;18.268;2024-02-15T03:53:17;18.60;;;8.82;;
80675;SDS011;70041;46.088;18.268;2024-02-15T03:55:42;19.07;;;9.10;;
80675;SDS011;70041;46.088;18.268;2024-02-15T03:58:08;17.17;;;7.77;;
80675;SDS011;70041;46.088;18.268;2024-02-15T04:00:34;18.15;;;8.18;;
80675;SDS011;70041;46.088;18.268;2024-02-15T04:02:59;18.33;;;8.30;;
80675;SDS011;70041;46.088;18.268;2024-02-15T04:05:25;17.35;;;7.80;;
80675;SDS011;70041;46.088;18.268;2024-02-15T04:07:51;15.90;;;7.67;;
80675;SDS011;70041;46.088;18.268;2024-02-15T04:10:18;16.50;;;7.63;;
80675;SDS011;70041;46.088;18.268;2024-02-15T04:12:44;14.00;;;7.55;;
80675;SDS011;70041;46.088;18.268;2024-02-15T04:15:09;16.75;;;7.70;;
80675;SDS011;70041;46.088;18.268;2024-02-15T04:17:40;15.93;;;7.00;;
80675;SDS011;70041;46.088;18.268;2024-02-15T04:20:07;14.27;;;7.78;;
80675;SDS011;70041;46.088;18.268;2024-02-15T04:22:34;17.08;;;7.65;;
80675;SDS011;70041;46.088;18.268;2024-02-15T04:25:05;14.57;;;7.47;;
80675;SDS011;70041;46.088;18.268;2024-02-15T04:27:32;12.52;;;6.85;;
80675;SDS011;70041;46.088;18.268;2024-02-15T04:29:58;15.23;;;8.02;;
80675;SDS011;70041;46.088;18.268;2024-02-15T04:32:24;18.88;;;8.70;;
80675;SDS011;70041;46.088;18.268;2024-02-15T04:34:49;28.30;;;11.87;;
80675;SDS011;70041;46.088;18.268;2024-02-15T04:37:15;25.23;;;12.05;;
80675;SDS011;70041;46.088;18.268;2024-02-15T04:39:42;31.93;;;15.33;;
80675;SDS011;70041;46.088;18.268;2024-02-15T04:42:07;34.72;;;14.38;;
80675;SDS011;70041;46.088;18.268;2024-02-15T04:44:36;27.77;;;13.98;;
80675;SDS011;70041;46.088;18.268;2024-02-15T04:47:05;21.52;;;11.35;;
80675;SDS011;70041;46.088;18.268;2024-02-15T04:49:30;25.15;;;13.68;;
80675;SDS011;70041;46.088;18.268;2024-02-15T04:51:56;24.23;;;11.13;;
80675;SDS011;70041;46.088;18.268;2024-02-15T04:54:29;28.17;;;12.60;;
80675;SDS011;70041;46.088;18.268;2024-02-15T04:56:54;20.08;;;10.70;;
80675;SDS011;70041;46.088;18.268;2024-02-15T04:59:21;23.10;;;9.90;;
80675;SDS011;70041;46.088;18.268;2024-02-15T05:01:50;17.83;;;9.35;;
80675;SDS011;70041;46.088;18.268;2024-02-15T05:04:16;19.45;;;8.73;;
80675;SDS011;70041;46.088;18.268;2024-02-15T05:06:43;17.00;;;8.88;;
80675;SDS011;70041;46.088;18.268;2024-02-15T05:09:10;16.45;;;8.27;;
80675;SDS011;70041;46.088;18.268;2024-02-15T05:11:38;15.87;;;8.67;;
80675;SDS011;70041;46.088;18.268;2024-02-15T05:14:12;20.75;;;8.50;;
80675;SDS011;70041;46.088;18.268;2024-02-15T05:16:43;16.40;;;7.85;;
80675;SDS011;70041;46.088;18.268;2024-02-15T05:19:12;19.20;;;8.35;;
80675;SDS011;70041;46.088;18.268;2024-02-15T05:21:38;29.47;;;14.77;;
80675;SDS011;70041;46.088;18.268;2024-02-15T05:24:04;25.98;;;14.75;;
80675;SDS011;70041;46.088;18.268;2024-02-15T05:26:30;23.00;;;12.77;;
80675;SDS011;70041;46.088;18.268;2024-02-15T05:28:56;25.08;;;13.55;;
80675;SDS011;70041;46.088;18.268;2024-02-15T05:31:21;23.60;;;12.23;;
80675;SDS011;70041;46.088;18.268;2024-02-15T05:33:50;19.67;;;11.63;;
80675;SDS011;70041;46.088;18.268;2024-02-15T05:36:17;24.48;;;11.25;;
80675;SDS011;70041;46.088;18.268;2024-02-15T05:38:47;24.60;;;13.20;;
80675;SDS011;70041;46.088;18.268;2024-02-15T05:41:14;58.63;;;23.13;;
80675;SDS011;70041;46.088;18.268;2024-02-15T05:43:40;51.83;;;24.25;;
80675;SDS011;70041;46.088;18.268;2024-02-15T05:46:08;80.73;;;30.30;;
80675;SDS011;70041;46.088;18.268;2024-02-15T05:48:35;89.00;;;32.35;;
80675;SDS011;70041;46.088;18.268;2024-02-15T05:51:02;64.85;;;23.73;;
80675;SDS011;70041;46.088;18.268;2024-02-15T05:53:28;32.45;;;14.23;;
80675;SDS011;70041;46.088;18.268;2024-02-15T05:55:54;18.42;;;8.88;;
80675;SDS011;70041;46.088;18.268;2024-02-15T05:58:23;34.10;;;13.47;;
80675;SDS011;70041;46.088;18.268;2024-02-15T06:00:49;45.75;;;19.35;;
80675;SDS011;70041;46.088;18.268;2024-02-15T06:03:15;47.90;;;18.07;;
80675;SDS011;70041;46.088;18.268;2024-02-15T06:05:41;41.97;;;16.23;;
80675;SDS011;70041;46.088;18.268;2024-02-15T06:08:07;46.28;;;22.33;;
80675;SDS011;70041;46.088;18.268;2024-02-15T06:10:33;36.80;;;16.13;;
80675;SDS011;70041;46.088;18.268;2024-02-15T06:12:58;28.83;;;12.43;;
80675;SDS011;70041;46.088;18.268;2024-02-15T06:15:24;24.60;;;11.35;;
80675;SDS011;70041;46.088;18.268;2024-02-15T06:17:50;25.20;;;11.85;;
80675;SDS011;70041;46.088;18.268;2024-02-15T06:20:16;25.17;;;12.47;;
80675;SDS011;70041;46.088;18.268;2024-02-15T06:22:45;26.13;;;12.90;;
80675;SDS011;70041;46.088;18.268;2024-02-15T06:25:11;32.13;;;13.38;;
80675;SDS011;70041;46.088;18.268;2024-02-15T06:27:38;25.27;;;11.00;;
80675;SDS011;70041;46.088;18.268;2024-02-15T06:30:11;18.95;;;8.95;;
80675;SDS011;70041;46.088;18.268;2024-02-15T06:32:55;18.17;;;8.95;;
80675;SDS011;70041;46.088;18.268;2024-02-15T06:35:39;18.60;;;9.07;;
80675;SDS011;70041;46.088;18.268;2024-02-15T06:38:23;18.33;;;9.65;;
80675;SDS011;70041;46.088;18.268;2024-02-15T06:41:07;24.75;;;12.18;;
80675;SDS011;70041;46.088;18.268;2024-02-15T06:43:34;25.13;;;13.45;;
80675;SDS011;70041;46.088;18.268;2024-02-15T06:46:00;25.88;;;11.95;;
80675;SDS011;70041;46.088;18.268;2024-02-15T06:48:26;21.40;;;9.80;;
80675;SDS011;70041;46.088;18.268;2024-02-15T06:50:52;18.88;;;7.75;;
80675;SDS011;70041;46.088;18.268;2024-02-15T06:53:17;15.97;;;7.60;;
80675;SDS011;70041;46.088;18.268;2024-02-15T06:55:45;21.23;;;10.15;;
80675;SDS011;70041;46.088;18.268;2024-02-15T06:58:14;28.65;;;14.45;;
80675;SDS011;70041;46.088;18.268;2024-02-15T07:00:45;46.73;;;19.93;;
80675;SDS011;70041;46.088;18.268;2024-02-15T07:03:13;36.97;;;16.58;;
80675;SDS011;70041;46.088;18.268;2024-02-15T07:05:38;23.03;;;11.70;;
80675;SDS011;70041;46.088;18.268;2024-02-15T07:08:06;23.23;;;9.30;;
80675;SDS011;70041;46.088;18.268;2024-02-15T07:10:37;18.70;;;8.95;;
80675;SDS011;70041;46.088;18.268;2024-02-15T07:13:04;18.63;;;8.43;;
80675;SDS011;70041;46.088;18.268;2024-02-15T07:15:29;26.13;;;10.33;;
80675;SDS011;70041;46.088;18.268;2024-02-15T07:17:58;23.15;;;10.52;;
80675;SDS011;70041;46.088;18.268;2024-02-15T07:20:24;19.83;;;10.32;;
80675;SDS011;70041;46.088;18.268;2024-02-15T07:22:49;26.40;;;11.97;;
80675;SDS011;70041;46.088;18.268;2024-02-15T07:25:15;28.93;;;13.63;;
80675;SDS011;70041;46.088;18.268;2024-02-15T07:27:40;26.08;;;12.07;;
80675;SDS011;70041;46.088;18.268;2024-02-15T07:30:06;24.63;;;12.17;;
80675;SDS011;70041;46.088;18.268;2024-02-15T07:32:33;27.02;;;12.25;;
80675;SDS011;70041;46.088;18.268;2024-02-15T07:35:00;22.75;;;11.82;;
80675;SDS011;70041;46.088;18.268;2024-02-15T07:37:26;27.60;;;12.90;;
80675;SDS011;70041;46.088;18.268;2024-02-15T07:39:52;23.67;;;12.05;;
80675;SDS011;70041;46.088;18.268;2024-02-15T07:42:17;57.13;;;29.48;;
80675;SDS011;70041;46.088;18.268;2024-02-15T07:44:43;38.75;;;18.33;;
80675;SDS011;70041;46.088;18.268;2024-02-15T07:47:09;30.73;;;13.60;;
80675;SDS011;70041;46.088;18.268;2024-02-15T07:49:37;25.73;;;14.75;;
80675;SDS011;70041;46.088;18.268;2024-02-15T07:52:03;28.90;;;13.93;;
80675;SDS011;70041;46.088;18.268;2024-02-15T07:54:29;23.63;;;11.95;;
80675;SDS011;70041;46.088;18.268;2024-02-15T07:56:56;30.08;;;14.40;;
80675;SDS011;70041;46.088;18.268;2024-02-15T07:59:23;37.00;;;15.90;;
80675;SDS011;70041;46.088;18.268;2024-02-15T08:01:48;32.87;;;14.00;;
80675;SDS011;70041;46.088;18.268;2024-02-15T08:04:15;24.63;;;11.32;;
80675;SDS011;70041;46.088;18.268;2024-02-15T08:06:42;27.90;;;12.05;;
80675;SDS011;70041;46.088;18.268;2024-02-15T08:09:08;25.92;;;14.45;;
80675;SDS011;70041;46.088;18.268;2024-02-15T08:11:43;25.77;;;12.45;;
80675;SDS011;70041;46.088;18.268;2024-02-15T08:14:09;25.65;;;12.77;;
80675;SDS011;70041;46.088;18.268;2024-02-15T08:16:36;27.20;;;12.80;;
80675;SDS011;70041;46.088;18.268;2024-02-15T08:19:05;25.38;;;13.60;;
80675;SDS011;70041;46.088;18.268;2024-02-15T08:21:32;26.95;;;13.20;;
80675;SDS011;70041;46.088;18.268;2024-02-15T08:23:59;27.73;;;13.75;;
80675;SDS011;70041;46.088;18.268;2024-02-15T08:26:30;27.17;;;12.70;;
80675;SDS011;70041;46.088;18.268;2024-02-15T08:29:01;16.48;;;8.30;;
80675;SDS011;70041;46.088;18.268;2024-02-15T08:31:28;18.77;;;9.00;;
80675;SDS011;70041;46.088;18.268;2024-02-15T08:33:55;22.13;;;11.23;;
80675;SDS011;70041;46.088;18.268;2024-02-15T08:36:22;24.00;;;13.07;;
80675;SDS011;70041;46.088;18.268;2024-02-15T08:38:49;28.23;;;13.00;;
80675;SDS011;70041;46.088;18.268;2024-02-15T08:41:15;22.92;;;11.20;;
80675;SDS011;70041;46.088;18.268;2024-02-15T08:43:42;14.25;;;7.13;;
80675;SDS011;70041;46.088;18.268;2024-02-15T08:46:08;17.67;;;6.55;;
80675;SDS011;70041;46.088;18.268;2024-02-15T08:48:35;12.70;;;5.63;;
80675;SDS011;70041;46.088;18.268;2024-02-15T08:51:01;13.27;;;6.17;;
80675;SDS011;70041;46.088;18.268;2024-02-15T08:53:26;12.98;;;6.25;;
80675;SDS011;70041;46.088;18.268;2024-02-15T08:55:52;13.37;;;7.13;;
80675;SDS011;70041;46.088;18.268;2024-02-15T08:58:18;16.45;;;6.70;;
80675;SDS011;70041;46.088;18.268;2024-02-15T09:00:44;15.13;;;7.03;;
80675;SDS011;70041;46.088;18.268;2024-02-15T09:03:10;17.90;;;5.80;;
80675;SDS011;70041;46.088;18.268;2024-02-15T09:05:37;13.10;;;4.82;;
80675;SDS011;70041;46.088;18.268;2024-02-15T09:08:05;17.08;;;5.20;;
80675;SDS011;70041;46.088;18.268;2024-02-15T09:10:31;11.20;;;4.85;;
80675;SDS011;70041;46.088;18.268;2024-02-15T09:12:57;13.67;;;4.50;;
80675;SDS011;70041;46.088;18.268;2024-02-15T09:15:22;11.50;;;4.30;;
80675;SDS011;70041;46.088;18.268;2024-02-15T09:17:48;13.30;;;4.85;;
80675;SDS011;70041;46.088;18.268;2024-02-15T09:20:14;14.13;;;5.35;;
80675;SDS011;70041;46.088;18.268;2024-02-15T09:22:47;13.63;;;4.72;;
80675;SDS011;70041;46.088;18.268;2024-02-15T09:25:14;15.30;;;4.83;;
80675;SDS011;70041;46.088;18.268;2024-02-15T09:27:40;11.13;;;4.00;;
80675;SDS011;70041;46.088;18.268;2024-02-15T09:30:06;10.23;;;4.38;;
80675;SDS011;70041;46.088;18.268;2024-02-15T09:32:34;11.35;;;4.18;;
80675;SDS011;70041;46.088;18.268;2024-02-15T09:35:06;9.05;;;4.07;;
80675;SDS011;70041;46.088;18.268;2024-02-15T09:37:33;9.07;;;3.80;;
80675;SDS011;70041;46.088;18.268;2024-02-15T09:40:08;13.68;;;4.03;;
80675;SDS011;70041;46.088;18.268;2024-02-15T09:42:35;9.90;;;3.63;;
80675;SDS011;70041;46.088;18.268;2024-02-15T09:45:01;11.03;;;3.90;;
80675;SDS011;70041;46.088;18.268;2024-02-15T09:47:30;11.88;;;4.05;;
80675;SDS011;70041;46.088;18.268;2024-02-15T09:50:06;12.07;;;3.75;;
80675;SDS011;70041;46.088;18.268;2024-02-15T09:52:32;10.57;;;4.20;;
80675;SDS011;70041;46.088;18.268;2024-02-15T09:55:02;8.40;;;4.07;;
80675;SDS011;70041;46.088;18.268;2024-02-15T09:57:28;11.45;;;3.67;;
80675;SDS011;70041;46.088;18.268;2024-02-15T09:59:57;9.25;;;4.05;;
80675;SDS011;70041;46.088;18.268;2024-02-15T10:02:23;11.05;;;4.50;;
80675;SDS011;70041;46.088;18.268;2024-02-15T10:04:50;10.32;;;4.45;;
80675;SDS011;70041;46.088;18.268;2024-02-15T10:07:18;7.97;;;3.90;;
80675;SDS011;70041;46.088;18.268;2024-02-15T10:09:44;7.80;;;3.83;;
80675;SDS011;70041;46.088;18.268;2024-02-15T10:12:09;10.53;;;3.90;;
80675;SDS011;70041;46.088;18.268;2024-02-15T10:14:35;11.25;;;4.32;;
80675;SDS011;70041;46.088;18.268;2024-02-15T10:17:07;9.73;;;4.40;;
80675;SDS011;70041;46.088;18.268;2024-02-15T10:19:39;9.40;;;3.70;;
80675;SDS011;70041;46.088;18.268;2024-02-15T10:22:05;11.57;;;4.25;;
80675;SDS011;70041;46.088;18.268;2024-02-15T10:24:32;7.75;;;3.63;;
80675;SDS011;70041;46.088;18.268;2024-02-15T10:27:01;11.40;;;4.17;;
80675;SDS011;70041;46.088;18.268;2024-02-15T10:29:32;8.43;;;3.80;;
80675;SDS011;70041;46.088;18.268;2024-02-15T10:31:59;11.93;;;4.65;;
80675;SDS011;70041;46.088;18.268;2024-02-15T10:34:25;10.25;;;4.80;;
80675;SDS011;70041;46.088;18.268;2024-02-15T10:36:53;11.18;;;4.90;;
80675;SDS011;70041;46.088;18.268;2024-02-15T10:39:39;10.98;;;4.82;;
80675;SDS011;70041;46.088;18.268;2024-02-15T10:42:08;11.90;;;4.40;;
80675;SDS011;70041;46.088;18.268;2024-02-15T10:44:36;8.93;;;4.35;;
80675;SDS011;70041;46.088;18.268;2024-02-15T10:47:03;14.68;;;4.93;;
80675;SDS011;70041;46.088;18.268;2024-02-15T10:49:32;11.70;;;4.65;;
80675;SDS011;70041;46.088;18.268;2024-02-15T10:51:59;9.30;;;4.53;;
80675;SDS011;70041;46.088;18.268;2024-02-15T10:57:31;10.90;;;4.78;;
80675;SDS011;70041;46.088;18.268;2024-02-15T10:59:58;11.07;;;5.55;;
80675;SDS011;70041;46.088;18.268;2024-02-15T11:02:37;15.07;;;6.30;;
80675;SDS011;70041;46.088;18.268;2024-02-15T11:05:05;11.15;;;5.28;;
80675;SDS011;70041;46.088;18.268;2024-02-15T11:07:38;14.93;;;5.53;;
80675;SDS011;70041;46.088;18.268;2024-02-15T11:10:04;15.63;;;6.70;;
80675;SDS011;70041;46.088;18.268;2024-02-15T11:12:36;12.40;;;5.68;;
80675;SDS011;70041;46.088;18.268;2024-02-15T11:15:02;14.48;;;7.22;;
80675;SDS011;70041;46.088;18.268;2024-02-15T11:20:10;12.27;;;5.95;;
80675;SDS011;70041;46.088;18.268;2024-02-15T11:22:56;12.25;;;5.78;;
80675;SDS011;70041;46.088;18.268;2024-02-15T11:25:31;14.65;;;5.50;;
80675;SDS011;70041;46.088;18.268;2024-02-15T11:28:09;13.88;;;5.85;;
80675;SDS011;70041;46.088;18.268;2024-02-15T11:30:47;10.57;;;5.07;;
80675;SDS011;70041;46.088;18.268;2024-02-15T11:33:30;11.90;;;5.07;;
80675;SDS011;70041;46.088;18.268;2024-02-15T11:36:15;9.65;;;4.72;;
80675;SDS011;70041;46.088;18.268;2024-02-15T11:38:42;13.88;;;5.20;;
80675;SDS011;70041;46.088;18.268;2024-02-15T11:41:11;10.10;;;4.90;;
80675;SDS011;70041;46.088;18.268;2024-02-15T11:46:12;9.10;;;4.10;;
80675;SDS011;70041;46.088;18.268;2024-02-15T11:48:43;10.73;;;4.55;;
80675;SDS011;70041;46.088;18.268;2024-02-15T11:51:08;12.20;;;4.78;;
80675;SDS011;70041;46.088;18.268;2024-02-15T11:53:36;11.75;;;4.82;;
80675;SDS011;70041;46.088;18.268;2024-02-15T11:56:04;10.57;;;4.60;;
80675;SDS011;70041;46.088;18.268;2024-02-15T11:58:30;9.30;;;4.40;;
80675;SDS011;70041;46.088;18.268;2024-02-15T12:01:17;9.18;;;4.55;;
80675;SDS011;70041;46.088;18.268;2024-02-15T12:04:01;9.65;;;4.55;;
80675;SDS011;70041;46.088;18.268;2024-02-15T12:06:46;10.45;;;4.20;;
80675;SDS011;70041;46.088;18.268;2024-02-15T12:09:30;11.95;;;5.03;;
80675;SDS011;70041;46.088;18.268;2024-02-15T12:12:14;9.95;;;5.00;;
80675;SDS011;70041;46.088;18.268;2024-02-15T12:15:02;11.00;;;4.40;;
80675;SDS011;70041;46.088;18.268;2024-02-15T12:17:47;10.30;;;4.85;;
80675;SDS011;70041;46.088;18.268;2024-02-15T12:20:31;9.77;;;4.85;;
80675;SDS011;70041;46.088;18.268;2024-02-15T12:22:57;11.70;;;5.20;;
80675;SDS011;70041;46.088;18.268;2024-02-15T12:25:26;9.68;;;4.78;;
80675;SDS011;70041;46.088;18.268;2024-02-15T12:27:55;11.20;;;5.10;;
80675;SDS011;70041;46.088;18.268;2024-02-15T12:30:24;9.98;;;4.55;;
80675;SDS011;70041;46.088;18.268;2024-02-15T12:32:54;9.83;;;4.30;;
80675;SDS011;70041;46.088;18.268;2024-02-15T12:35:37;9.80;;;4.32;;
80675;SDS011;70041;46.088;18.268;2024-02-15T12:38:03;15.00;;;5.30;;
80675;SDS011;70041;46.088;18.268;2024-02-15T12:40:34;10.02;;;4.10;;
80675;SDS011;70041;46.088;18.268;2024-02-15T12:43:01;10.73;;;3.87;;
80675;SDS011;70041;46.088;18.268;2024-02-15T12:45:30;10.38;;;4.40;;
80675;SDS011;70041;46.088;18.268;2024-02-15T12:47:56;11.05;;;4.68;;
80675;SDS011;70041;46.088;18.268;2024-02-15T12:50:29;9.52;;;4.00;;
80675;SDS011;70041;46.088;18.268;2024-02-15T12:52:55;9.77;;;3.80;;
80675;SDS011;70041;46.088;18.268;2024-02-15T12:55:27;9.93;;;4.40;;
80675;SDS011;70041;46.088;18.268;2024-02-15T12:57:59;9.27;;;4.03;;
80675;SDS011;70041;46.088;18.268;2024-02-15T13:00:29;9.82;;;3.88;;
80675;SDS011;70041;46.088;18.268;2024-02-15T13:02:56;9.23;;;4.40;;
80675;SDS011;70041;46.088;18.268;2024-02-15T13:05:24;10.05;;;4.32;;
80675;SDS011;70041;46.088;18.268;2024-02-15T13:07:51;8.60;;;3.90;;
80675;SDS011;70041;46.088;18.268;2024-02-15T13:10:21;12.82;;;4.28;;
80675;SDS011;70041;46.088;18.268;2024-02-15T13:12:47;9.50;;;3.90;;
80675;SDS011;70041;46.088;18.268;2024-02-15T13:15:13;9.68;;;4.43;;
80675;SDS011;70041;46.088;18.268;2024-02-15T13:17:42;10.13;;;3.88;;
80675;SDS011;70041;46.088;18.268;2024-02-15T13:20:10;8.57;;;3.70;;
80675;SDS011;70041;46.088;18.268;2024-02-15T13:22:38;11.30;;;4.10;;
80675;SDS011;70041;46.088;18.268;2024-02-15T13:25:07;11.63;;;4.20;;
80675;SDS011;70041;46.088;18.268;2024-02-15T13:27:36;9.18;;;4.07;;
80675;SDS011;70041;46.088;18.268;2024-02-15T13:30:05;10.70;;;3.70;;
80675;SDS011;70041;46.088;18.268;2024-02-15T13:32:37;11.30;;;4.47;;
80675;SDS011;70041;46.088;18.268;2024-02-15T13:35:06;10.45;;;4.20;;
80675;SDS011;70041;46.088;18.268;2024-02-15T13:37:40;10.20;;;4.13;;
80675;SDS011;70041;46.088;18.268;2024-02-15T13:40:12;8.55;;;3.80;;
80675;SDS011;70041;46.088;18.268;2024-02-15T13:42:44;10.73;;;3.85;;
80675;SDS011;70041;46.088;18.268;2024-02-15T13:45:24;8.20;;;3.95;;
80675;SDS011;70041;46.088;18.268;2024-02-15T13:47:55;8.60;;;3.55;;
80675;SDS011;70041;46.088;18.268;2024-02-15T13:50:22;8.57;;;3.80;;
80675;SDS011;70041;46.088;18.268;2024-02-15T13:52:49;8.30;;;3.30;;
80675;SDS011;70041;46.088;18.268;2024-02-15T13:55:15;9.40;;;3.60;;
80675;SDS011;70041;46.088;18.268;2024-02-15T13:57:42;8.60;;;3.40;;
80675;SDS011;70041;46.088;18.268;2024-02-15T14:00:09;7.63;;;3.10;;
80675;SDS011;70041;46.088;18.268;2024-02-15T14:02:42;8.07;;;3.45;;
80675;SDS011;70041;46.088;18.268;2024-02-15T14:05:09;9.23;;;3.58;;
80675;SDS011;70041;46.088;18.268;2024-02-15T14:07:36;9.00;;;3.72;;
80675;SDS011;70041;46.088;18.268;2024-02-15T14:10:03;7.43;;;3.67;;
80675;SDS011;70041;46.088;18.268;2024-02-15T14:12:29;10.60;;;3.80;;
80675;SDS011;70041;46.088;18.268;2024-02-15T14:14:55;11.37;;;3.83;;
80675;SDS011;70041;46.088;18.268;2024-02-15T14:17:21;8.57;;;3.55;;
80675;SDS011;70041;46.088;18.268;2024-02-15T14:19:47;8.32;;;3.65;;
80675;SDS011;70041;46.088;18.268;2024-02-15T14:22:13;11.25;;;3.80;;
80675;SDS011;70041;46.088;18.268;2024-02-15T14:24:41;9.98;;;3.55;;
80675;SDS011;70041;46.088;18.268;2024-02-15T14:27:08;7.95;;;3.60;;
80675;SDS011;70041;46.088;18.268;2024-02-15T14:29:34;9.20;;;4.35;;
80675;SDS011;70041;46.088;18.268;2024-02-15T14:32:02;10.40;;;4.55;;